sensor_id;sensor_type;location;lat;lon;timestamp;P1;durP1;ratioP1;P2;durP2;ratioP2
85757;SDS011;76202;52.626;4.746;2024-03-22T00:00:01;9.05;;;2.60;;
85757;SDS011;76202;52.626;4.746;2024-03-22T00:02:27;10.80;;;2.90;;
85757;SDS011;76202;52.626;4.746;2024-03-22T00:04:52;12.57;;;3.22;;
85757;SDS011;76202;52.626;4.746;2024-03-22T00:07:18;9.48;;;2.80;;
85757;SDS011;76202;52.626;4.746;2024-03-22T00:09:43;10.18;;;2.55;;
85757;SDS011;76202;52.626;4.746;2024-03-22T00:12:08;10.50;;;2.60;;
85757;SDS011;76202;52.626;4.746;2024-03-22T00:14:34;11.07;;;2.47;;
85757;SDS011;76202;52.626;4.746;2024-03-22T00:16:59;9.43;;;2.47;;
85757;SDS011;76202;52.626;4.746;2024-03-22T00:19:24;10.60;;;2.60;;
85757;SDS011;76202;52.626;4.746;2024-03-22T00:21:50;10.90;;;3.00;;
85757;SDS011;76202;52.626;4.746;2024-03-22T00:24:15;11.07;;;2.70;;
85757;SDS011;76202;52.626;4.746;2024-03-22T00:26:41;10.20;;;2.72;;
85757;SDS011;76202;52.626;4.746;2024-03-22T00:29:06;9.75;;;2.40;;
85757;SDS011;76202;52.626;4.746;2024-03-22T00:31:33;9.90;;;2.42;;
85757;SDS011;76202;52.626;4.746;2024-03-22T00:33:58;9.32;;;2.72;;
85757;SDS011;76202;52.626;4.746;2024-03-22T00:36:23;9.48;;;2.58;;
85757;SDS011;76202;52.626;4.746;2024-03-22T00:38:49;10.02;;;2.60;;
85757;SDS011;76202;52.626;4.746;2024-03-22T00:41:14;10.82;;;2.60;;
85757;SDS011;76202;52.626;4.746;2024-03-22T00:43:40;9.70;;;2.90;;
85757;SDS011;76202;52.626;4.746;2024-03-22T00:46:05;9.23;;;2.55;;
85757;SDS011;76202;52.626;4.746;2024-03-22T00:48:31;10.02;;;2.30;;
85757;SDS011;76202;52.626;4.746;2024-03-22T00:50:56;11.02;;;2.63;;
85757;SDS011;76202;52.626;4.746;2024-03-22T00:53:21;13.85;;;3.10;;
85757;SDS011;76202;52.626;4.746;2024-03-22T00:55:47;12.30;;;2.65;;
85757;SDS011;76202;52.626;4.746;2024-03-22T00:58:16;13.23;;;2.70;;
85757;SDS011;76202;52.626;4.746;2024-03-22T01:00:43;8.40;;;2.30;;
85757;SDS011;76202;52.626;4.746;2024-03-22T01:03:09;10.15;;;2.60;;
85757;SDS011;76202;52.626;4.746;2024-03-22T01:05:36;9.77;;;2.80;;
85757;SDS011;76202;52.626;4.746;2024-03-22T01:08:02;10.68;;;3.17;;
85757;SDS011;76202;52.626;4.746;2024-03-22T01:10:27;9.75;;;2.78;;
85757;SDS011;76202;52.626;4.746;2024-03-22T01:12:52;10.60;;;2.60;;
85757;SDS011;76202;52.626;4.746;2024-03-22T01:15:18;8.93;;;2.67;;
85757;SDS011;76202;52.626;4.746;2024-03-22T01:17:43;12.35;;;2.50;;
85757;SDS011;76202;52.626;4.746;2024-03-22T01:20:09;9.02;;;2.50;;
85757;SDS011;76202;52.626;4.746;2024-03-22T01:22:35;9.77;;;2.75;;
85757;SDS011;76202;52.626;4.746;2024-03-22T01:25:01;11.38;;;2.80;;
85757;SDS011;76202;52.626;4.746;2024-03-22T01:27:27;12.63;;;3.08;;
85757;SDS011;76202;52.626;4.746;2024-03-22T01:29:52;9.88;;;2.60;;
85757;SDS011;76202;52.626;4.746;2024-03-22T01:32:17;10.70;;;2.50;;
85757;SDS011;76202;52.626;4.746;2024-03-22T01:34:43;10.45;;;2.70;;
85757;SDS011;76202;52.626;4.746;2024-03-22T01:37:08;10.07;;;2.70;;
85757;SDS011;76202;52.626;4.746;2024-03-22T01:39:34;9.32;;;2.55;;
85757;SDS011;76202;52.626;4.746;2024-03-22T01:41:59;10.23;;;2.90;;
85757;SDS011;76202;52.626;4.746;2024-03-22T01:44:28;10.80;;;2.80;;
85757;SDS011;76202;52.626;4.746;2024-03-22T01:46:54;11.73;;;3.03;;
85757;SDS011;76202;52.626;4.746;2024-03-22T01:49:19;11.98;;;2.40;;
85757;SDS011;76202;52.626;4.746;2024-03-22T01:51:46;9.93;;;2.67;;
85757;SDS011;76202;52.626;4.746;2024-03-22T01:54:11;9.40;;;2.47;;
85757;SDS011;76202;52.626;4.746;2024-03-22T01:56:37;10.57;;;2.70;;
85757;SDS011;76202;52.626;4.746;2024-03-22T01:59:04;10.95;;;2.72;;
85757;SDS011;76202;52.626;4.746;2024-03-22T02:01:30;10.35;;;3.00;;
85757;SDS011;76202;52.626;4.746;2024-03-22T02:03:56;10.70;;;2.72;;
85757;SDS011;76202;52.626;4.746;2024-03-22T02:06:21;11.05;;;2.72;;
85757;SDS011;76202;52.626;4.746;2024-03-22T02:08:47;10.68;;;3.00;;
85757;SDS011;76202;52.626;4.746;2024-03-22T02:11:12;9.57;;;2.60;;
85757;SDS011;76202;52.626;4.746;2024-03-22T02:13:38;11.50;;;2.55;;
85757;SDS011;76202;52.626;4.746;2024-03-22T02:16:04;9.77;;;2.63;;
85757;SDS011;76202;52.626;4.746;2024-03-22T02:18:29;9.13;;;2.50;;
85757;SDS011;76202;52.626;4.746;2024-03-22T02:20:56;10.00;;;2.83;;
85757;SDS011;76202;52.626;4.746;2024-03-22T02:23:26;13.07;;;2.67;;
85757;SDS011;76202;52.626;4.746;2024-03-22T02:25:57;10.88;;;2.65;;
85757;SDS011;76202;52.626;4.746;2024-03-22T02:28:29;9.63;;;2.60;;
85757;SDS011;76202;52.626;4.746;2024-03-22T02:30:55;10.32;;;2.60;;
85757;SDS011;76202;52.626;4.746;2024-03-22T02:33:21;9.18;;;2.30;;
85757;SDS011;76202;52.626;4.746;2024-03-22T02:35:47;11.98;;;2.75;;
85757;SDS011;76202;52.626;4.746;2024-03-22T02:38:13;9.00;;;2.63;;
85757;SDS011;76202;52.626;4.746;2024-03-22T02:40:38;9.68;;;2.80;;
85757;SDS011;76202;52.626;4.746;2024-03-22T02:43:04;10.35;;;2.65;;
85757;SDS011;76202;52.626;4.746;2024-03-22T02:45:30;14.05;;;2.80;;
85757;SDS011;76202;52.626;4.746;2024-03-22T02:47:56;11.25;;;2.47;;
85757;SDS011;76202;52.626;4.746;2024-03-22T02:50:22;10.82;;;2.60;;
85757;SDS011;76202;52.626;4.746;2024-03-22T02:52:50;10.60;;;2.88;;
85757;SDS011;76202;52.626;4.746;2024-03-22T02:55:15;10.95;;;2.88;;
85757;SDS011;76202;52.626;4.746;2024-03-22T02:57:41;12.25;;;2.63;;
85757;SDS011;76202;52.626;4.746;2024-03-22T03:00:07;9.10;;;2.60;;
85757;SDS011;76202;52.626;4.746;2024-03-22T03:02:33;10.70;;;2.92;;
85757;SDS011;76202;52.626;4.746;2024-03-22T03:04:58;10.27;;;2.50;;
85757;SDS011;76202;52.626;4.746;2024-03-22T03:07:24;11.48;;;2.78;;
85757;SDS011;76202;52.626;4.746;2024-03-22T03:09:50;10.10;;;2.53;;
85757;SDS011;76202;52.626;4.746;2024-03-22T03:12:15;10.57;;;2.78;;
85757;SDS011;76202;52.626;4.746;2024-03-22T03:14:41;9.35;;;2.63;;
85757;SDS011;76202;52.626;4.746;2024-03-22T03:17:07;9.55;;;2.50;;
85757;SDS011;76202;52.626;4.746;2024-03-22T03:19:32;10.75;;;2.30;;
85757;SDS011;76202;52.626;4.746;2024-03-22T03:21:58;12.15;;;2.60;;
85757;SDS011;76202;52.626;4.746;2024-03-22T03:24:23;9.98;;;2.55;;
85757;SDS011;76202;52.626;4.746;2024-03-22T03:26:49;9.65;;;2.75;;
85757;SDS011;76202;52.626;4.746;2024-03-22T03:29:14;11.48;;;2.40;;
85757;SDS011;76202;52.626;4.746;2024-03-22T03:31:40;8.57;;;2.40;;
85757;SDS011;76202;52.626;4.746;2024-03-22T03:34:05;10.88;;;2.67;;
85757;SDS011;76202;52.626;4.746;2024-03-22T03:36:30;10.07;;;2.53;;
85757;SDS011;76202;52.626;4.746;2024-03-22T03:38:56;9.30;;;2.42;;
85757;SDS011;76202;52.626;4.746;2024-03-22T03:41:21;9.65;;;2.42;;
85757;SDS011;76202;52.626;4.746;2024-03-22T03:43:47;10.80;;;2.60;;
85757;SDS011;76202;52.626;4.746;2024-03-22T03:46:12;9.52;;;2.13;;
85757;SDS011;76202;52.626;4.746;2024-03-22T03:48:38;10.88;;;2.58;;
85757;SDS011;76202;52.626;4.746;2024-03-22T03:51:03;10.48;;;2.50;;
85757;SDS011;76202;52.626;4.746;2024-03-22T03:53:30;9.45;;;2.47;;
85757;SDS011;76202;52.626;4.746;2024-03-22T03:55:58;8.60;;;2.20;;
85757;SDS011;76202;52.626;4.746;2024-03-22T03:58:24;12.38;;;2.30;;
85757;SDS011;76202;52.626;4.746;2024-03-22T04:00:50;9.07;;;2.30;;
85757;SDS011;76202;52.626;4.746;2024-03-22T04:03:15;8.43;;;2.50;;
85757;SDS011;76202;52.626;4.746;2024-03-22T04:05:41;9.05;;;2.33;;
85757;SDS011;76202;52.626;4.746;2024-03-22T04:08:06;8.45;;;2.20;;
85757;SDS011;76202;52.626;4.746;2024-03-22T04:10:31;10.95;;;2.53;;
85757;SDS011;76202;52.626;4.746;2024-03-22T04:12:57;7.55;;;2.17;;
85757;SDS011;76202;52.626;4.746;2024-03-22T04:15:23;9.40;;;2.40;;
85757;SDS011;76202;52.626;4.746;2024-03-22T04:17:48;9.13;;;2.13;;
85757;SDS011;76202;52.626;4.746;2024-03-22T04:20:16;8.98;;;2.45;;
85757;SDS011;76202;52.626;4.746;2024-03-22T04:22:41;8.68;;;2.30;;
85757;SDS011;76202;52.626;4.746;2024-03-22T04:25:07;9.68;;;2.40;;
85757;SDS011;76202;52.626;4.746;2024-03-22T04:27:35;8.10;;;2.33;;
85757;SDS011;76202;52.626;4.746;2024-03-22T04:30:02;8.77;;;2.20;;
85757;SDS011;76202;52.626;4.746;2024-03-22T04:32:27;8.15;;;2.22;;
85757;SDS011;76202;52.626;4.746;2024-03-22T04:34:55;10.70;;;2.38;;
85757;SDS011;76202;52.626;4.746;2024-03-22T04:37:21;11.70;;;2.45;;
85757;SDS011;76202;52.626;4.746;2024-03-22T04:39:46;8.73;;;2.30;;
85757;SDS011;76202;52.626;4.746;2024-03-22T04:42:12;10.95;;;2.15;;
85757;SDS011;76202;52.626;4.746;2024-03-22T04:44:37;8.80;;;2.00;;
85757;SDS011;76202;52.626;4.746;2024-03-22T04:47:02;9.10;;;2.60;;
85757;SDS011;76202;52.626;4.746;2024-03-22T04:49:28;10.05;;;2.50;;
85757;SDS011;76202;52.626;4.746;2024-03-22T04:51:53;9.88;;;2.60;;
85757;SDS011;76202;52.626;4.746;2024-03-22T04:54:19;11.90;;;4.22;;
85757;SDS011;76202;52.626;4.746;2024-03-22T04:56:47;8.55;;;2.30;;
85757;SDS011;76202;52.626;4.746;2024-03-22T04:59:12;9.27;;;2.42;;
85757;SDS011;76202;52.626;4.746;2024-03-22T05:01:37;9.07;;;2.20;;
85757;SDS011;76202;52.626;4.746;2024-03-22T05:04:03;9.75;;;2.60;;
85757;SDS011;76202;52.626;4.746;2024-03-22T05:06:28;11.15;;;2.38;;
85757;SDS011;76202;52.626;4.746;2024-03-22T05:08:53;11.20;;;2.53;;
85757;SDS011;76202;52.626;4.746;2024-03-22T05:11:19;11.60;;;2.85;;
85757;SDS011;76202;52.626;4.746;2024-03-22T05:13:44;10.80;;;2.53;;
85757;SDS011;76202;52.626;4.746;2024-03-22T05:16:10;11.00;;;2.35;;
85757;SDS011;76202;52.626;4.746;2024-03-22T05:18:37;12.80;;;2.47;;
85757;SDS011;76202;52.626;4.746;2024-03-22T05:21:03;10.13;;;2.30;;
85757;SDS011;76202;52.626;4.746;2024-03-22T05:23:28;10.48;;;2.50;;
85757;SDS011;76202;52.626;4.746;2024-03-22T05:25:53;12.23;;;2.58;;
85757;SDS011;76202;52.626;4.746;2024-03-22T05:28:19;8.70;;;2.17;;
85757;SDS011;76202;52.626;4.746;2024-03-22T05:30:44;10.23;;;2.30;;
85757;SDS011;76202;52.626;4.746;2024-03-22T05:33:10;9.48;;;2.38;;
85757;SDS011;76202;52.626;4.746;2024-03-22T05:35:36;9.60;;;2.42;;
85757;SDS011;76202;52.626;4.746;2024-03-22T05:38:01;11.00;;;2.78;;
85757;SDS011;76202;52.626;4.746;2024-03-22T05:40:27;11.75;;;2.50;;
85757;SDS011;76202;52.626;4.746;2024-03-22T05:42:52;9.70;;;2.60;;
85757;SDS011;76202;52.626;4.746;2024-03-22T05:45:18;10.52;;;2.53;;
85757;SDS011;76202;52.626;4.746;2024-03-22T05:47:43;10.20;;;2.55;;
85757;SDS011;76202;52.626;4.746;2024-03-22T05:50:08;10.00;;;2.30;;
85757;SDS011;76202;52.626;4.746;2024-03-22T05:52:34;10.75;;;2.70;;
85757;SDS011;76202;52.626;4.746;2024-03-22T05:54:59;13.00;;;2.88;;
85757;SDS011;76202;52.626;4.746;2024-03-22T05:57:25;13.60;;;2.70;;
85757;SDS011;76202;52.626;4.746;2024-03-22T05:59:50;13.77;;;2.80;;
85757;SDS011;76202;52.626;4.746;2024-03-22T06:02:17;10.10;;;2.50;;
85757;SDS011;76202;52.626;4.746;2024-03-22T06:04:42;9.20;;;2.53;;
85757;SDS011;76202;52.626;4.746;2024-03-22T06:07:08;12.52;;;3.20;;
85757;SDS011;76202;52.626;4.746;2024-03-22T06:09:33;10.40;;;2.72;;
85757;SDS011;76202;52.626;4.746;2024-03-22T06:12:14;12.68;;;2.90;;
85757;SDS011;76202;52.626;4.746;2024-03-22T06:14:41;11.73;;;3.08;;
85757;SDS011;76202;52.626;4.746;2024-03-22T06:17:08;10.82;;;2.67;;
85757;SDS011;76202;52.626;4.746;2024-03-22T06:19:34;9.98;;;2.70;;
85757;SDS011;76202;52.626;4.746;2024-03-22T06:22:00;12.57;;;2.67;;
85757;SDS011;76202;52.626;4.746;2024-03-22T06:24:26;14.48;;;2.95;;
85757;SDS011;76202;52.626;4.746;2024-03-22T06:26:51;11.63;;;2.80;;
85757;SDS011;76202;52.626;4.746;2024-03-22T06:29:16;12.98;;;2.80;;
85757;SDS011;76202;52.626;4.746;2024-03-22T06:31:42;11.35;;;3.00;;
85757;SDS011;76202;52.626;4.746;2024-03-22T06:34:07;11.13;;;3.03;;
85757;SDS011;76202;52.626;4.746;2024-03-22T06:36:33;13.85;;;2.83;;
85757;SDS011;76202;52.626;4.746;2024-03-22T06:38:58;12.85;;;3.08;;
85757;SDS011;76202;52.626;4.746;2024-03-22T06:41:24;14.07;;;2.70;;
85757;SDS011;76202;52.626;4.746;2024-03-22T06:43:51;11.95;;;2.90;;
85757;SDS011;76202;52.626;4.746;2024-03-22T06:46:16;20.42;;;3.38;;
85757;SDS011;76202;52.626;4.746;2024-03-22T06:48:42;14.90;;;2.80;;
85757;SDS011;76202;52.626;4.746;2024-03-22T06:51:07;12.23;;;2.80;;
85757;SDS011;76202;52.626;4.746;2024-03-22T06:53:33;13.63;;;2.90;;
85757;SDS011;76202;52.626;4.746;2024-03-22T06:55:58;12.38;;;2.88;;
85757;SDS011;76202;52.626;4.746;2024-03-22T06:58:23;10.60;;;2.70;;
85757;SDS011;76202;52.626;4.746;2024-03-22T07:00:50;12.40;;;2.70;;
85757;SDS011;76202;52.626;4.746;2024-03-22T07:03:15;16.85;;;3.85;;
85757;SDS011;76202;52.626;4.746;2024-03-22T07:05:42;11.38;;;2.70;;
85757;SDS011;76202;52.626;4.746;2024-03-22T07:08:08;15.52;;;3.00;;
85757;SDS011;76202;52.626;4.746;2024-03-22T07:10:33;15.57;;;3.25;;
85757;SDS011;76202;52.626;4.746;2024-03-22T07:12:59;14.77;;;3.00;;
85757;SDS011;76202;52.626;4.746;2024-03-22T07:15:24;12.68;;;2.78;;
85757;SDS011;76202;52.626;4.746;2024-03-22T07:17:50;13.73;;;3.30;;
85757;SDS011;76202;52.626;4.746;2024-03-22T07:20:16;11.65;;;3.30;;
85757;SDS011;76202;52.626;4.746;2024-03-22T07:22:41;16.20;;;3.50;;
85757;SDS011;76202;52.626;4.746;2024-03-22T07:25:07;11.32;;;3.13;;
85757;SDS011;76202;52.626;4.746;2024-03-22T07:27:35;19.02;;;3.90;;
85757;SDS011;76202;52.626;4.746;2024-03-22T07:30:04;19.70;;;3.80;;
85757;SDS011;76202;52.626;4.746;2024-03-22T07:32:30;15.32;;;3.38;;
85757;SDS011;76202;52.626;4.746;2024-03-22T07:34:56;17.42;;;3.30;;
85757;SDS011;76202;52.626;4.746;2024-03-22T07:37:22;13.80;;;3.15;;
85757;SDS011;76202;52.626;4.746;2024-03-22T07:39:48;14.43;;;3.47;;
85757;SDS011;76202;52.626;4.746;2024-03-22T07:42:13;15.48;;;3.42;;
85757;SDS011;76202;52.626;4.746;2024-03-22T07:44:39;14.52;;;3.42;;
85757;SDS011;76202;52.626;4.746;2024-03-22T07:47:05;18.85;;;3.38;;
85757;SDS011;76202;52.626;4.746;2024-03-22T07:49:30;14.52;;;3.70;;
85757;SDS011;76202;52.626;4.746;2024-03-22T07:51:56;13.25;;;3.47;;
85757;SDS011;76202;52.626;4.746;2024-03-22T07:54:22;16.38;;;4.00;;
85757;SDS011;76202;52.626;4.746;2024-03-22T07:56:47;15.52;;;3.42;;
85757;SDS011;76202;52.626;4.746;2024-03-22T07:59:13;13.82;;;3.10;;
85757;SDS011;76202;52.626;4.746;2024-03-22T08:01:38;16.60;;;3.45;;
85757;SDS011;76202;52.626;4.746;2024-03-22T08:04:03;15.13;;;3.55;;
85757;SDS011;76202;52.626;4.746;2024-03-22T08:06:29;15.30;;;3.65;;
85757;SDS011;76202;52.626;4.746;2024-03-22T08:08:54;14.35;;;3.30;;
85757;SDS011;76202;52.626;4.746;2024-03-22T08:11:20;16.25;;;3.67;;
85757;SDS011;76202;52.626;4.746;2024-03-22T08:13:45;11.63;;;3.60;;
85757;SDS011;76202;52.626;4.746;2024-03-22T08:16:11;18.23;;;3.70;;
85757;SDS011;76202;52.626;4.746;2024-03-22T08:18:37;12.43;;;3.53;;
85757;SDS011;76202;52.626;4.746;2024-03-22T08:21:02;16.10;;;4.45;;
85757;SDS011;76202;52.626;4.746;2024-03-22T08:23:28;17.42;;;3.63;;
85757;SDS011;76202;52.626;4.746;2024-03-22T08:25:53;15.65;;;3.38;;
85757;SDS011;76202;52.626;4.746;2024-03-22T08:28:20;12.80;;;3.83;;
85757;SDS011;76202;52.626;4.746;2024-03-22T08:30:45;14.73;;;4.00;;
85757;SDS011;76202;52.626;4.746;2024-03-22T08:33:11;17.58;;;3.80;;
85757;SDS011;76202;52.626;4.746;2024-03-22T08:35:39;17.67;;;4.35;;
85757;SDS011;76202;52.626;4.746;2024-03-22T08:38:05;18.30;;;3.70;;
85757;SDS011;76202;52.626;4.746;2024-03-22T08:40:36;12.48;;;3.30;;
85757;SDS011;76202;52.626;4.746;2024-03-22T08:43:05;15.10;;;3.78;;
85757;SDS011;76202;52.626;4.746;2024-03-22T08:45:34;14.90;;;3.67;;
85757;SDS011;76202;52.626;4.746;2024-03-22T08:47:59;13.55;;;4.05;;
85757;SDS011;76202;52.626;4.746;2024-03-22T08:50:25;14.85;;;3.65;;
85757;SDS011;76202;52.626;4.746;2024-03-22T08:52:50;19.05;;;4.00;;
85757;SDS011;76202;52.626;4.746;2024-03-22T08:55:22;16.20;;;4.53;;
85757;SDS011;76202;52.626;4.746;2024-03-22T08:57:48;15.50;;;3.92;;
85757;SDS011;76202;52.626;4.746;2024-03-22T09:00:13;14.90;;;3.90;;
85757;SDS011;76202;52.626;4.746;2024-03-22T09:02:39;12.57;;;3.40;;
85757;SDS011;76202;52.626;4.746;2024-03-22T09:05:08;13.27;;;4.45;;
85757;SDS011;76202;52.626;4.746;2024-03-22T09:07:36;14.95;;;4.00;;
85757;SDS011;76202;52.626;4.746;2024-03-22T09:10:02;17.58;;;4.32;;
85757;SDS011;76202;52.626;4.746;2024-03-22T09:12:27;15.77;;;3.80;;
85757;SDS011;76202;52.626;4.746;2024-03-22T09:14:53;16.45;;;3.92;;
85757;SDS011;76202;52.626;4.746;2024-03-22T09:17:18;15.57;;;4.45;;
85757;SDS011;76202;52.626;4.746;2024-03-22T09:19:46;16.55;;;4.03;;
85757;SDS011;76202;52.626;4.746;2024-03-22T09:22:12;14.68;;;3.85;;
85757;SDS011;76202;52.626;4.746;2024-03-22T09:24:38;13.95;;;4.03;;
85757;SDS011;76202;52.626;4.746;2024-03-22T09:27:03;17.02;;;4.03;;
85757;SDS011;76202;52.626;4.746;2024-03-22T09:29:33;18.08;;;3.83;;
85757;SDS011;76202;52.626;4.746;2024-03-22T09:31:59;15.50;;;3.90;;
85757;SDS011;76202;52.626;4.746;2024-03-22T09:34:30;12.13;;;3.72;;
85757;SDS011;76202;52.626;4.746;2024-03-22T09:36:58;17.13;;;4.45;;
85757;SDS011;76202;52.626;4.746;2024-03-22T09:39:23;20.10;;;4.20;;
85757;SDS011;76202;52.626;4.746;2024-03-22T09:41:50;16.55;;;3.28;;
85757;SDS011;76202;52.626;4.746;2024-03-22T09:44:17;19.50;;;4.18;;
85757;SDS011;76202;52.626;4.746;2024-03-22T09:46:44;13.48;;;3.17;;
85757;SDS011;76202;52.626;4.746;2024-03-22T09:49:13;13.52;;;3.60;;
85757;SDS011;76202;52.626;4.746;2024-03-22T09:51:42;14.23;;;3.33;;
85757;SDS011;76202;52.626;4.746;2024-03-22T09:54:09;15.55;;;3.83;;
85757;SDS011;76202;52.626;4.746;2024-03-22T09:56:35;13.82;;;3.70;;
85757;SDS011;76202;52.626;4.746;2024-03-22T09:59:05;13.55;;;3.88;;
85757;SDS011;76202;52.626;4.746;2024-03-22T10:01:31;14.55;;;3.67;;
85757;SDS011;76202;52.626;4.746;2024-03-22T10:03:59;14.57;;;3.70;;
85757;SDS011;76202;52.626;4.746;2024-03-22T10:06:24;15.43;;;3.80;;
85757;SDS011;76202;52.626;4.746;2024-03-22T10:08:50;14.05;;;3.80;;
85757;SDS011;76202;52.626;4.746;2024-03-22T10:11:37;13.00;;;3.67;;
85757;SDS011;76202;52.626;4.746;2024-03-22T10:14:01;18.83;;;4.13;;
85757;SDS011;76202;52.626;4.746;2024-03-22T10:16:32;13.93;;;3.85;;
85757;SDS011;76202;52.626;4.746;2024-03-22T10:18:59;16.58;;;4.40;;
85757;SDS011;76202;52.626;4.746;2024-03-22T10:21:24;13.93;;;3.90;;
85757;SDS011;76202;52.626;4.746;2024-03-22T10:23:50;12.85;;;3.67;;
85757;SDS011;76202;52.626;4.746;2024-03-22T10:26:17;12.90;;;3.50;;
85757;SDS011;76202;52.626;4.746;2024-03-22T10:28:46;14.43;;;3.90;;
85757;SDS011;76202;52.626;4.746;2024-03-22T10:31:12;16.42;;;3.92;;
85757;SDS011;76202;52.626;4.746;2024-03-22T10:33:44;12.20;;;3.47;;
85757;SDS011;76202;52.626;4.746;2024-03-22T10:36:10;16.23;;;4.70;;
85757;SDS011;76202;52.626;4.746;2024-03-22T10:38:36;16.40;;;4.13;;
85757;SDS011;76202;52.626;4.746;2024-03-22T10:41:04;15.70;;;4.22;;
85757;SDS011;76202;52.626;4.746;2024-03-22T10:43:30;15.85;;;4.32;;
85757;SDS011;76202;52.626;4.746;2024-03-22T10:45:56;18.30;;;4.38;;
85757;SDS011;76202;52.626;4.746;2024-03-22T10:48:31;14.55;;;4.20;;
85757;SDS011;76202;52.626;4.746;2024-03-22T10:51:00;13.35;;;4.10;;
85757;SDS011;76202;52.626;4.746;2024-03-22T10:53:30;13.43;;;4.00;;
85757;SDS011;76202;52.626;4.746;2024-03-22T10:55:58;13.18;;;4.30;;
85757;SDS011;76202;52.626;4.746;2024-03-22T10:58:28;12.98;;;3.63;;
85757;SDS011;76202;52.626;4.746;2024-03-22T11:00:55;14.52;;;3.90;;
85757;SDS011;76202;52.626;4.746;2024-03-22T11:03:21;12.70;;;3.55;;
85757;SDS011;76202;52.626;4.746;2024-03-22T11:05:49;15.85;;;4.22;;
85757;SDS011;76202;52.626;4.746;2024-03-22T11:08:23;15.30;;;4.20;;
85757;SDS011;76202;52.626;4.746;2024-03-22T11:10:50;16.42;;;3.92;;
85757;SDS011;76202;52.626;4.746;2024-03-22T11:13:19;14.77;;;4.10;;
85757;SDS011;76202;52.626;4.746;2024-03-22T11:15:48;17.17;;;4.25;;
85757;SDS011;76202;52.626;4.746;2024-03-22T11:18:14;14.20;;;3.83;;
85757;SDS011;76202;52.626;4.746;2024-03-22T11:20:40;14.48;;;3.80;;
85757;SDS011;76202;52.626;4.746;2024-03-22T11:23:07;15.73;;;4.68;;
85757;SDS011;76202;52.626;4.746;2024-03-22T11:25:34;11.20;;;3.83;;
85757;SDS011;76202;52.626;4.746;2024-03-22T11:27:59;17.42;;;4.15;;
85757;SDS011;76202;52.626;4.746;2024-03-22T11:30:28;14.88;;;4.22;;
85757;SDS011;76202;52.626;4.746;2024-03-22T11:32:55;14.60;;;3.47;;
85757;SDS011;76202;52.626;4.746;2024-03-22T11:35:21;13.65;;;4.07;;
85757;SDS011;76202;52.626;4.746;2024-03-22T11:37:47;11.98;;;3.70;;
85757;SDS011;76202;52.626;4.746;2024-03-22T11:40:12;14.93;;;3.70;;
85757;SDS011;76202;52.626;4.746;2024-03-22T11:42:39;12.15;;;3.80;;
85757;SDS011;76202;52.626;4.746;2024-03-22T11:45:08;14.15;;;4.03;;
85757;SDS011;76202;52.626;4.746;2024-03-22T11:47:38;12.82;;;3.75;;
85757;SDS011;76202;52.626;4.746;2024-03-22T11:50:09;14.93;;;3.53;;
85757;SDS011;76202;52.626;4.746;2024-03-22T11:52:42;12.90;;;3.30;;
85757;SDS011;76202;52.626;4.746;2024-03-22T11:55:10;14.13;;;4.00;;
85757;SDS011;76202;52.626;4.746;2024-03-22T11:57:35;14.70;;;4.32;;
85757;SDS011;76202;52.626;4.746;2024-03-22T12:00:02;17.92;;;3.95;;
85757;SDS011;76202;52.626;4.746;2024-03-22T12:02:31;11.75;;;3.78;;
85757;SDS011;76202;52.626;4.746;2024-03-22T12:04:57;14.80;;;3.47;;
85757;SDS011;76202;52.626;4.746;2024-03-22T12:07:23;12.45;;;3.75;;
85757;SDS011;76202;52.626;4.746;2024-03-22T12:09:49;13.80;;;3.72;;
85757;SDS011;76202;52.626;4.746;2024-03-22T12:12:14;14.88;;;3.88;;
85757;SDS011;76202;52.626;4.746;2024-03-22T12:14:40;11.85;;;3.65;;
85757;SDS011;76202;52.626;4.746;2024-03-22T12:17:06;15.73;;;4.10;;
85757;SDS011;76202;52.626;4.746;2024-03-22T12:19:32;13.07;;;4.03;;
85757;SDS011;76202;52.626;4.746;2024-03-22T12:21:58;12.30;;;3.47;;
85757;SDS011;76202;52.626;4.746;2024-03-22T12:24:24;11.65;;;3.80;;
85757;SDS011;76202;52.626;4.746;2024-03-22T12:26:49;11.85;;;3.10;;
85757;SDS011;76202;52.626;4.746;2024-03-22T12:29:16;13.85;;;3.53;;
85757;SDS011;76202;52.626;4.746;2024-03-22T12:31:42;12.73;;;3.42;;
85757;SDS011;76202;52.626;4.746;2024-03-22T12:34:08;13.27;;;3.05;;
85757;SDS011;76202;52.626;4.746;2024-03-22T12:36:33;11.75;;;3.22;;
85757;SDS011;76202;52.626;4.746;2024-03-22T12:38:58;12.45;;;3.78;;
85757;SDS011;76202;52.626;4.746;2024-03-22T12:41:24;13.38;;;3.45;;
85757;SDS011;76202;52.626;4.746;2024-03-22T12:43:50;12.52;;;3.40;;
85757;SDS011;76202;52.626;4.746;2024-03-22T12:46:16;13.18;;;3.20;;
85757;SDS011;76202;52.626;4.746;2024-03-22T12:48:46;11.18;;;3.15;;
85757;SDS011;76202;52.626;4.746;2024-03-22T12:51:11;13.25;;;3.67;;
85757;SDS011;76202;52.626;4.746;2024-03-22T12:53:37;12.57;;;3.33;;
85757;SDS011;76202;52.626;4.746;2024-03-22T12:56:05;12.15;;;2.95;;
85757;SDS011;76202;52.626;4.746;2024-03-22T12:58:31;13.45;;;3.03;;
85757;SDS011;76202;52.626;4.746;2024-03-22T13:00:57;15.68;;;3.20;;
85757;SDS011;76202;52.626;4.746;2024-03-22T13:03:23;13.27;;;3.47;;
85757;SDS011;76202;52.626;4.746;2024-03-22T13:05:48;14.45;;;3.35;;
85757;SDS011;76202;52.626;4.746;2024-03-22T13:08:14;14.73;;;3.13;;
85757;SDS011;76202;52.626;4.746;2024-03-22T13:10:40;12.63;;;2.97;;
85757;SDS011;76202;52.626;4.746;2024-03-22T13:13:08;11.63;;;3.00;;
85757;SDS011;76202;52.626;4.746;2024-03-22T13:15:34;11.48;;;3.20;;
85757;SDS011;76202;52.626;4.746;2024-03-22T13:18:02;13.32;;;3.13;;
85757;SDS011;76202;52.626;4.746;2024-03-22T13:20:27;11.75;;;3.20;;
85757;SDS011;76202;52.626;4.746;2024-03-22T13:22:53;15.48;;;3.00;;
85757;SDS011;76202;52.626;4.746;2024-03-22T13:25:18;13.52;;;3.10;;
85757;SDS011;76202;52.626;4.746;2024-03-22T13:27:49;13.90;;;3.13;;
85757;SDS011;76202;52.626;4.746;2024-03-22T13:30:14;13.20;;;2.90;;
85757;SDS011;76202;52.626;4.746;2024-03-22T13:32:43;14.65;;;2.90;;
85757;SDS011;76202;52.626;4.746;2024-03-22T13:35:08;12.90;;;3.08;;
85757;SDS011;76202;52.626;4.746;2024-03-22T13:37:34;12.07;;;2.60;;
85757;SDS011;76202;52.626;4.746;2024-03-22T13:40:00;11.98;;;2.92;;
85757;SDS011;76202;52.626;4.746;2024-03-22T13:42:27;12.30;;;2.75;;
85757;SDS011;76202;52.626;4.746;2024-03-22T13:44:53;12.35;;;2.67;;
85757;SDS011;76202;52.626;4.746;2024-03-22T13:47:18;12.25;;;3.03;;
85757;SDS011;76202;52.626;4.746;2024-03-22T13:49:45;11.55;;;2.70;;
85757;SDS011;76202;52.626;4.746;2024-03-22T13:52:10;10.02;;;2.60;;
85757;SDS011;76202;52.626;4.746;2024-03-22T13:54:36;11.77;;;2.63;;
85757;SDS011;76202;52.626;4.746;2024-03-22T13:57:02;11.77;;;2.80;;
85757;SDS011;76202;52.626;4.746;2024-03-22T13:59:28;11.77;;;2.45;;
85757;SDS011;76202;52.626;4.746;2024-03-22T14:01:54;12.27;;;2.75;;
85757;SDS011;76202;52.626;4.746;2024-03-22T14:04:21;13.73;;;2.90;;
85757;SDS011;76202;52.626;4.746;2024-03-22T14:06:47;11.40;;;2.47;;
85757;SDS011;76202;52.626;4.746;2024-03-22T14:09:13;12.35;;;2.85;;
85757;SDS011;76202;52.626;4.746;2024-03-22T14:11:38;14.63;;;2.80;;
85757;SDS011;76202;52.626;4.746;2024-03-22T14:14:04;12.45;;;2.83;;
85757;SDS011;76202;52.626;4.746;2024-03-22T14:16:29;15.38;;;2.50;;
85757;SDS011;76202;52.626;4.746;2024-03-22T14:18:55;14.32;;;2.70;;
85757;SDS011;76202;52.626;4.746;2024-03-22T14:21:20;16.58;;;3.13;;
85757;SDS011;76202;52.626;4.746;2024-03-22T14:23:46;10.27;;;2.30;;
85757;SDS011;76202;52.626;4.746;2024-03-22T14:26:13;12.20;;;2.63;;
85757;SDS011;76202;52.626;4.746;2024-03-22T14:28:39;15.02;;;2.92;;